Time;durP1;ratioP1;P1;durP2;ratioP2;P2;SDS_P1;SDS_P2;PMS_P1;PMS_P2;Temp;Humidity;BMP_temperature;BMP_pressure;BME280_temperature;BME280_humidity;BME280_pressure;Samples;Min_cycle;Max_cycle;Signal;HPM_P1;HPM_P2
2024/01/14 00:00:09;;;;;;;1.48;1.40;;;1.50;99.90;;;;;;5019068;28;20209;-82
2024/01/14 00:02:38;;;;;;;0.70;0.70;;;1.40;99.90;;;;;;5019344;28;20611;-80
2024/01/14 00:05:07;;;;;;;1.33;1.30;;;1.40;99.90;;;;;;5019149;28;20469;-82
2024/01/14 00:07:36;;;;;;;0.85;0.85;;;1.40;99.90;;;;;;5018653;28;20301;-78
2024/01/14 00:10:04;;;;;;;3.22;1.90;;;1.40;99.90;;;;;;5016204;28;20212;-79
2024/01/14 00:12:31;;;;;;;0.50;0.50;;;1.40;99.90;;;;;;5018977;28;20236;-79
2024/01/14 00:14:58;;;;;;;1.25;1.25;;;1.30;99.90;;;;;;5018831;28;20212;-83
2024/01/14 00:17:26;;;;;;;0.40;0.40;;;1.40;99.90;;;;;;5015793;28;20268;-80
2024/01/14 00:19:56;;;;;;;1.00;1.00;;;1.40;99.90;;;;;;5015058;28;20289;-81
2024/01/14 00:22:23;;;;;;;1.67;1.60;;;1.50;99.90;;;;;;5003161;28;20248;-79
2024/01/14 00:24:51;;;;;;;1.63;1.58;;;1.50;99.90;;;;;;5020913;28;20209;-80
2024/01/14 00:27:18;;;;;;;1.17;1.17;;;1.50;99.90;;;;;;5019462;28;20645;-78
2024/01/14 00:29:45;;;;;;;1.30;1.30;;;1.50;99.90;;;;;;5015079;28;20206;-79
2024/01/14 00:32:12;;;;;;;0.60;0.60;;;1.50;99.90;;;;;;5019254;28;20205;-82
2024/01/14 00:34:42;;;;;;;2.40;2.30;;;1.50;99.90;;;;;;5022543;28;20216;-78
2024/01/14 00:37:10;;;;;;;6.20;2.25;;;1.50;99.90;;;;;;5024971;28;20544;-78
2024/01/14 00:39:38;;;;;;;1.05;1.05;;;1.50;99.90;;;;;;5020461;28;20201;-79
2024/01/14 00:42:05;;;;;;;0.90;0.90;;;1.60;99.90;;;;;;5005949;28;20309;-82
2024/01/14 00:44:32;;;;;;;0.75;0.75;;;1.60;99.90;;;;;;5018626;28;20221;-78
2024/01/14 00:47:00;;;;;;;3.15;1.55;;;1.60;99.90;;;;;;5018859;28;20197;-77
2024/01/14 00:49:27;;;;;;;1.48;1.23;;;1.70;99.90;;;;;;5017833;28;20565;-77
2024/01/14 00:51:54;;;;;;;1.35;1.35;;;1.70;99.90;;;;;;5018688;28;20317;-78
2024/01/14 00:54:21;;;;;;;1.40;1.40;;;1.70;99.90;;;;;;5018464;28;20209;-77
2024/01/14 00:56:49;;;;;;;0.70;0.70;;;1.70;99.90;;;;;;5014430;28;20214;-80
2024/01/14 00:59:16;;;;;;;2.33;2.22;;;1.70;99.90;;;;;;5018308;28;20219;-81
2024/01/14 01:01:43;;;;;;;2.47;2.28;;;1.70;99.90;;;;;;5018770;28;20210;-80
2024/01/14 01:04:09;;;;;;;1.02;1.02;;;1.70;99.90;;;;;;5018122;28;20455;-80
2024/01/14 01:06:36;;;;;;;3.00;2.80;;;1.70;99.90;;;;;;5018334;28;20209;-82
2024/01/14 01:09:04;;;;;;;1.77;0.98;;;1.70;99.90;;;;;;5017110;28;20225;-80
2024/01/14 01:11:31;;;;;;;0.40;0.40;;;1.70;99.90;;;;;;5017943;28;20210;-77
2024/01/14 01:13:58;;;;;;;0.95;0.95;;;1.70;99.90;;;;;;5017648;28;20224;-79
2024/01/14 01:16:25;;;;;;;1.80;1.67;;;1.60;99.90;;;;;;5000217;28;20498;-78
2024/01/14 01:18:52;;;;;;;0.77;0.77;;;1.60;99.90;;;;;;5018536;28;20212;-80
2024/01/14 01:21:22;;;;;;;0.73;0.73;;;1.60;99.90;;;;;;5004412;28;20441;-81
2024/01/14 01:23:49;;;;;;;0.40;0.40;;;1.60;99.90;;;;;;5018124;28;20280;-79
2024/01/14 01:26:17;;;;;;;1.25;1.15;;;1.70;99.90;;;;;;5018527;28;20205;-79
2024/01/14 01:28:43;;;;;;;1.75;1.67;;;1.70;99.90;;;;;;5017294;28;20260;-80
2024/01/14 01:31:11;;;;;;;0.98;0.98;;;1.70;99.90;;;;;;5018112;28;20521;-81
2024/01/14 01:33:38;;;;;;;1.40;1.40;;;1.70;99.90;;;;;;5018076;28;20206;-77
2024/01/14 01:36:06;;;;;;;2.22;1.80;;;1.70;99.90;;;;;;5018473;28;20209;-84
2024/01/14 01:38:33;;;;;;;0.95;0.95;;;1.70;99.90;;;;;;5017442;28;20284;-78
2024/01/14 01:41:01;;;;;;;0.38;0.38;;;1.70;99.90;;;;;;5022217;28;20205;-83
2024/01/14 01:43:28;;;;;;;0.50;0.50;;;1.70;99.90;;;;;;5021986;28;20225;-77
2024/01/14 01:45:56;;;;;;;1.27;1.27;;;1.70;99.90;;;;;;5014149;28;20205;-79
2024/01/14 01:48:24;;;;;;;2.45;2.25;;;1.70;99.90;;;;;;5021215;28;20233;-78
2024/01/14 01:50:54;;;;;;;0.50;0.50;;;1.80;99.90;;;;;;5021290;28;20232;-79
2024/01/14 01:53:23;;;;;;;2.55;2.00;;;1.80;99.90;;;;;;5034452;28;20502;-79
2024/01/14 01:55:50;;;;;;;1.40;1.30;;;1.80;99.90;;;;;;5036613;28;20221;-81
2024/01/14 01:58:17;;;;;;;1.98;1.80;;;1.70;99.90;;;;;;5037017;28;20236;-78
2024/01/14 02:00:44;;;;;;;1.85;1.30;;;1.80;99.90;;;;;;5025495;28;20319;-81
2024/01/14 02:03:11;;;;;;;0.60;0.60;;;1.70;99.90;;;;;;5007074;28;20214;-81
2024/01/14 02:05:44;;;;;;;1.95;1.45;;;1.70;99.90;;;;;;5021208;28;20506;-78
2024/01/14 02:08:12;;;;;;;0.60;0.60;;;1.80;99.90;;;;;;5021194;28;20275;-79
2024/01/14 02:10:39;;;;;;;1.30;1.30;;;1.70;99.90;;;;;;5021050;28;20248;-77
2024/01/14 02:13:06;;;;;;;1.15;0.70;;;1.70;99.90;;;;;;5021629;28;20264;-80
2024/01/14 02:15:33;;;;;;;1.60;1.50;;;1.70;99.90;;;;;;5022058;28;20560;-78
2024/01/14 02:18:00;;;;;;;0.70;0.70;;;1.60;99.90;;;;;;5021487;28;20201;-83
2024/01/14 02:20:27;;;;;;;0.60;0.60;;;1.60;99.90;;;;;;5021542;28;20381;-77
2024/01/14 02:22:56;;;;;;;0.95;0.95;;;1.50;99.90;;;;;;5020823;28;20276;-79
2024/01/14 02:25:23;;;;;;;0.70;0.70;;;1.40;99.90;;;;;;5021616;28;20593;-84
2024/01/14 02:27:51;;;;;;;0.85;0.85;;;1.40;99.90;;;;;;5020819;28;20226;-80
2024/01/14 02:30:18;;;;;;;0.60;0.60;;;1.40;99.90;;;;;;5021078;28;20240;-82
2024/01/14 02:32:48;;;;;;;0.80;0.80;;;1.40;99.90;;;;;;5020762;28;20209;-79
2024/01/14 02:35:16;;;;;;;1.58;1.48;;;1.30;99.90;;;;;;5015301;28;20210;-80
2024/01/14 02:37:44;;;;;;;1.15;1.10;;;1.30;99.90;;;;;;5008498;28;20214;-79
2024/01/14 02:40:11;;;;;;;0.65;0.65;;;1.30;99.90;;;;;;5020900;28;20420;-78
2024/01/14 02:42:39;;;;;;;0.90;0.88;;;1.20;99.90;;;;;;5021132;28;20216;-79
2024/01/14 02:45:08;;;;;;;2.55;1.98;;;1.20;99.90;;;;;;5020351;28;20276;-78
2024/01/14 02:47:35;;;;;;;0.50;0.50;;;1.20;99.90;;;;;;5014924;28;20279;-79
2024/01/14 02:50:02;;;;;;;1.55;1.45;;;1.10;99.90;;;;;;5020957;28;20268;-78
2024/01/14 02:52:29;;;;;;;1.50;1.40;;;1.20;99.90;;;;;;5020127;28;20272;-78
2024/01/14 02:54:56;;;;;;;0.93;0.93;;;1.20;99.90;;;;;;5021226;28;20490;-81
2024/01/14 02:57:24;;;;;;;1.10;1.10;;;1.10;99.90;;;;;;5021225;28;20209;-79
2024/01/14 02:59:51;;;;;;;0.68;0.68;;;1.20;99.90;;;;;;5014188;28;20234;-78
2024/01/14 03:02:18;;;;;;;1.15;0.88;;;1.20;99.90;;;;;;5018915;28;20513;-78
2024/01/14 03:04:45;;;;;;;1.02;1.02;;;1.20;99.90;;;;;;5020337;28;20198;-79
2024/01/14 03:07:12;;;;;;;0.40;0.40;;;1.20;99.90;;;;;;5020979;28;20553;-79
2024/01/14 03:09:39;;;;;;;1.20;1.20;;;1.10;99.90;;;;;;5020557;28;20271;-79
2024/01/14 03:12:06;;;;;;;0.85;0.85;;;1.10;99.90;;;;;;4995986;28;20674;-81
2024/01/14 03:14:34;;;;;;;1.55;1.50;;;1.10;99.90;;;;;;5003143;28;20235;-77
2024/01/14 03:17:01;;;;;;;0.60;0.60;;;1.20;99.90;;;;;;5012286;28;20202;-77
2024/01/14 03:19:28;;;;;;;2.35;1.33;;;1.20;99.90;;;;;;5019858;28;20472;-81
2024/01/14 03:21:56;;;;;;;1.35;1.25;;;1.10;99.90;;;;;;4999264;28;20214;-79
2024/01/14 03:24:23;;;;;;;0.60;0.60;;;1.20;99.90;;;;;;5020034;28;20216;-87
2024/01/14 03:26:50;;;;;;;0.93;0.93;;;1.20;99.90;;;;;;5020679;28;20197;-79
2024/01/14 03:29:17;;;;;;;1.65;1.58;;;1.30;99.90;;;;;;5020720;28;20238;-83
2024/01/14 03:31:44;;;;;;;0.40;0.40;;;1.30;99.90;;;;;;5020710;28;20435;-82
2024/01/14 03:34:11;;;;;;;0.50;0.50;;;1.20;99.90;;;;;;5019801;28;20517;-79
2024/01/14 03:36:38;;;;;;;0.57;0.57;;;1.30;99.90;;;;;;5019157;28;20206;-78
2024/01/14 03:39:06;;;;;;;0.40;0.40;;;1.30;99.90;;;;;;5019349;28;20209;-78
2024/01/14 03:41:34;;;;;;;0.50;0.50;;;1.30;99.90;;;;;;5019464;28;20209;-78
2024/01/14 03:44:01;;;;;;;1.35;1.35;;;1.30;99.90;;;;;;5019874;28;20198;-77
2024/01/14 03:46:28;;;;;;;0.68;0.68;;;1.40;99.90;;;;;;5019256;28;20209;-78
2024/01/14 03:48:55;;;;;;;0.50;0.40;;;1.40;99.90;;;;;;5018291;28;20317;-78
2024/01/14 03:51:22;;;;;;;2.80;2.65;;;1.40;99.90;;;;;;5019589;28;20447;-77
2024/01/14 03:53:49;;;;;;;0.40;0.40;;;1.40;99.90;;;;;;5016098;28;20442;-78
2024/01/14 03:56:17;;;;;;;0.30;0.30;;;1.50;99.90;;;;;;5019699;28;20784;-78
2024/01/14 03:58:44;;;;;;;0.70;0.70;;;1.50;99.90;;;;;;5019631;28;20209;-79
2024/01/14 04:01:16;;;;;;;2.03;1.92;;;1.50;99.90;;;;;;5021899;28;20232;-83
2024/01/14 04:03:43;;;;;;;1.70;1.60;;;1.60;99.90;;;;;;5022902;28;20308;-79
2024/01/14 04:06:10;;;;;;;1.58;1.48;;;1.60;99.90;;;;;;5019353;28;20224;-83
2024/01/14 04:08:37;;;;;;;3.55;3.10;;;1.70;99.90;;;;;;5027017;28;20231;-79
2024/01/14 04:11:04;;;;;;;0.50;0.50;;;1.60;99.90;;;;;;5020040;28;20225;-79
2024/01/14 04:13:31;;;;;;;0.43;0.43;;;1.60;99.90;;;;;;5021156;28;20262;-80
2024/01/14 04:15:58;;;;;;;1.65;1.55;;;1.60;99.90;;;;;;5026468;28;20509;-80
2024/01/14 04:18:29;;;;;;;0.57;0.57;;;1.50;99.90;;;;;;5022503;28;20505;-80
2024/01/14 04:20:57;;;;;;;0.60;0.60;;;1.60;99.90;;;;;;5022572;28;20445;-81
2024/01/14 04:23:24;;;;;;;0.68;0.68;;;1.60;99.90;;;;;;5020314;28;20206;-78
2024/01/14 04:25:51;;;;;;;0.60;0.60;;;1.60;99.90;;;;;;5019601;28;20243;-78
2024/01/14 04:28:18;;;;;;;2.88;1.52;;;1.50;99.90;;;;;;5019595;28;20248;-85
2024/01/14 04:30:44;;;;;;;0.85;0.85;;;1.60;99.90;;;;;;5019460;28;20453;-79
2024/01/14 04:33:12;;;;;;;0.77;0.77;;;1.60;99.90;;;;;;5011214;28;20209;-80
2024/01/14 04:35:39;;;;;;;0.40;0.40;;;1.60;99.90;;;;;;5018915;28;20208;-77
2024/01/14 04:38:06;;;;;;;1.23;1.23;;;1.60;99.90;;;;;;5019092;28;20248;-80
2024/01/14 04:40:33;;;;;;;0.43;0.43;;;1.60;99.90;;;;;;5020906;28;20209;-81
2024/01/14 04:43:00;;;;;;;0.60;0.60;;;1.70;99.90;;;;;;5002390;28;20569;-79
2024/01/14 04:45:27;;;;;;;0.88;0.88;;;1.70;99.90;;;;;;5016356;28;20451;-83
2024/01/14 04:47:54;;;;;;;0.70;0.70;;;1.70;99.90;;;;;;5018009;28;20233;-81
2024/01/14 04:50:21;;;;;;;0.90;0.88;;;1.60;99.90;;;;;;5013231;28;20217;-85
2024/01/14 04:52:48;;;;;;;2.53;2.42;;;1.70;99.90;;;;;;5015567;28;20206;-81
2024/01/14 04:55:15;;;;;;;0.60;0.60;;;1.70;99.90;;;;;;5021368;28;20462;-80
2024/01/14 04:57:42;;;;;;;3.03;2.78;;;1.70;99.90;;;;;;5007696;28;20277;-80
2024/01/14 05:00:10;;;;;;;1.50;1.42;;;1.60;99.90;;;;;;4995857;28;20197;-79
2024/01/14 05:02:37;;;;;;;0.70;0.70;;;1.60;99.90;;;;;;5016260;28;20213;-79
2024/01/14 05:05:04;;;;;;;1.35;1.35;;;1.50;99.90;;;;;;5018714;28;20271;-80
2024/01/14 05:07:31;;;;;;;1.15;1.15;;;1.40;99.90;;;;;;5018372;28;20209;-82
2024/01/14 05:09:59;;;;;;;0.70;0.70;;;1.30;99.90;;;;;;4998709;28;20276;-79
2024/01/14 05:12:26;;;;;;;0.52;0.52;;;1.30;99.90;;;;;;5017488;28;20601;-82
2024/01/14 05:14:53;;;;;;;1.58;1.48;;;1.30;99.90;;;;;;5008654;28;20560;-79
2024/01/14 05:17:20;;;;;;;0.50;0.50;;;1.20;99.90;;;;;;5018225;28;20271;-80
2024/01/14 05:19:47;;;;;;;1.25;1.02;;;1.20;99.90;;;;;;5018924;28;20209;-78
2024/01/14 05:22:14;;;;;;;0.50;0.50;;;1.10;99.90;;;;;;5018956;28;20212;-80
2024/01/14 05:24:42;;;;;;;0.60;0.60;;;1.20;99.90;;;;;;5018312;28;20322;-80
2024/01/14 05:27:15;;;;;;;1.27;1.27;;;1.20;99.90;;;;;;5000196;28;20205;-80
2024/01/14 05:29:45;;;;;;;3.85;0.82;;;1.30;99.90;;;;;;5022580;28;20233;-83
2024/01/14 05:32:16;;;;;;;0.50;0.50;;;1.30;99.90;;;;;;5019101;28;20198;-82
2024/01/14 05:34:46;;;;;;;2.75;2.35;;;1.40;99.90;;;;;;5018387;28;20292;-78
2024/01/14 05:37:15;;;;;;;0.40;0.40;;;1.40;99.90;;;;;;5001538;28;20536;-78
2024/01/14 05:39:42;;;;;;;1.40;1.30;;;1.40;99.90;;;;;;5020301;28;20209;-78
2024/01/14 05:42:09;;;;;;;1.55;1.45;;;1.40;99.90;;;;;;5017959;28;20247;-77
2024/01/14 05:44:36;;;;;;;1.23;1.13;;;1.40;99.90;;;;;;5019103;28;20212;-80
2024/01/14 05:47:03;;;;;;;2.10;1.08;;;1.40;99.90;;;;;;5014952;28;20524;-81
2024/01/14 05:49:30;;;;;;;0.40;0.40;;;1.40;99.90;;;;;;5017597;28;20239;-81
2024/01/14 05:51:57;;;;;;;0.47;0.47;;;1.40;99.90;;;;;;5015619;28;20252;-79
2024/01/14 05:54:24;;;;;;;0.40;0.40;;;1.30;99.90;;;;;;5017596;28;20206;-78
2024/01/14 05:56:51;;;;;;;1.05;1.05;;;1.30;99.90;;;;;;5019112;28;20206;-78
2024/01/14 05:59:18;;;;;;;0.93;0.93;;;1.30;99.90;;;;;;5020926;28;20202;-79
2024/01/14 06:01:45;;;;;;;1.02;1.02;;;1.40;99.90;;;;;;5019238;28;20281;-80
2024/01/14 06:04:12;;;;;;;0.60;0.60;;;1.30;99.90;;;;;;5017624;28;20197;-80
2024/01/14 06:06:39;;;;;;;8.43;2.45;;;1.30;99.90;;;;;;5015530;28;20205;-79
2024/01/14 06:09:06;;;;;;;1.23;1.23;;;1.30;99.90;;;;;;5016417;28;20229;-82
2024/01/14 06:11:33;;;;;;;0.68;0.68;;;1.30;99.90;;;;;;5018308;28;20213;-80
2024/01/14 06:14:00;;;;;;;1.42;1.42;;;1.30;99.90;;;;;;5017369;28;20198;-80
2024/01/14 06:16:27;;;;;;;0.70;0.70;;;1.30;99.90;;;;;;5017885;28;20217;-84
2024/01/14 06:18:54;;;;;;;0.63;0.63;;;1.30;99.90;;;;;;5017629;28;20209;-82
2024/01/14 06:21:21;;;;;;;1.63;1.52;;;1.30;99.90;;;;;;5017939;28;20210;-78
2024/01/14 06:23:49;;;;;;;0.50;0.50;;;1.30;99.90;;;;;;5018145;28;20433;-77
2024/01/14 06:26:17;;;;;;;0.50;0.50;;;1.20;99.90;;;;;;5001653;28;20232;-83
2024/01/14 06:28:45;;;;;;;1.02;1.02;;;1.30;99.90;;;;;;5021132;28;20428;-80
2024/01/14 06:31:16;;;;;;;0.80;0.80;;;1.30;99.90;;;;;;5022378;28;20413;-81
2024/01/14 06:33:44;;;;;;;1.95;1.40;;;1.30;99.90;;;;;;5022147;28;20206;-85
2024/01/14 06:36:11;;;;;;;0.93;0.93;;;1.40;99.90;;;;;;5021142;28;20461;-79
2024/01/14 06:38:39;;;;;;;1.33;1.08;;;1.30;99.90;;;;;;5021014;28;20473;-78
2024/01/14 06:41:06;;;;;;;0.52;0.52;;;1.40;99.90;;;;;;5023015;28;20217;-82
2024/01/14 06:43:37;;;;;;;0.88;0.88;;;1.40;99.90;;;;;;5023636;28;20198;-81
2024/01/14 06:46:04;;;;;;;0.90;0.90;;;1.40;99.90;;;;;;5009190;28;20210;-78
2024/01/14 06:48:32;;;;;;;0.73;0.73;;;1.40;99.90;;;;;;5008931;28;20502;-77
2024/01/14 06:51:02;;;;;;;1.00;0.65;;;1.30;99.90;;;;;;5004528;28;20205;-77
2024/01/14 06:53:29;;;;;;;1.02;1.02;;;1.30;99.90;;;;;;5021977;28;20754;-80
2024/01/14 06:55:56;;;;;;;0.40;0.40;;;1.40;99.90;;;;;;5021350;28;20272;-83
2024/01/14 06:58:23;;;;;;;1.58;1.50;;;1.30;99.90;;;;;;5022343;28;20205;-83
2024/01/14 07:00:50;;;;;;;0.60;0.60;;;1.30;99.90;;;;;;5021511;28;20221;-78
2024/01/14 07:03:18;;;;;;;0.40;0.40;;;1.40;99.90;;;;;;5021182;28;20247;-79
2024/01/14 07:05:45;;;;;;;0.40;0.40;;;1.30;99.90;;;;;;5021116;28;20237;-79
2024/01/14 07:08:12;;;;;;;2.83;2.60;;;1.30;99.90;;;;;;5021033;28;20209;-80
2024/01/14 07:10:39;;;;;;;0.68;0.68;;;1.40;99.90;;;;;;5020866;28;20416;-80
2024/01/14 07:13:06;;;;;;;0.95;0.88;;;1.40;99.90;;;;;;5003171;28;20236;-81
2024/01/14 07:15:33;;;;;;;0.50;0.50;;;1.40;99.90;;;;;;5021140;28;20198;-83
2024/01/14 07:18:04;;;;;;;0.90;0.70;;;1.40;99.90;;;;;;5005189;28;20256;-80
2024/01/14 07:20:32;;;;;;;0.70;0.70;;;1.50;99.90;;;;;;5020693;28;20210;-83
2024/01/14 07:22:59;;;;;;;1.42;1.33;;;1.50;99.90;;;;;;5020795;28;20248;-84
2024/01/14 07:25:46;;;;;;;0.60;0.60;;;1.40;99.90;;;;;;5020856;28;20417;-81
2024/01/14 07:28:14;;;;;;;2.80;2.60;;;1.40;99.90;;;;;;5003155;28;20476;-80
2024/01/14 07:30:40;;;;;;;0.93;0.93;;;1.50;99.90;;;;;;5020527;28;20229;-80
2024/01/14 07:33:07;;;;;;;1.67;1.50;;;1.50;99.90;;;;;;5020629;28;20383;-78
2024/01/14 07:35:34;;;;;;;2.78;0.85;;;1.50;99.90;;;;;;5020261;28;20233;-83
2024/01/14 07:38:01;;;;;;;1.13;1.13;;;1.60;99.90;;;;;;5004158;28;20489;-81
2024/01/14 07:40:28;;;;;;;0.60;0.60;;;1.50;99.90;;;;;;5021898;28;20233;-82
2024/01/14 07:42:55;;;;;;;0.75;0.75;;;1.60;99.90;;;;;;5022727;28;20536;-80
2024/01/14 07:45:23;;;;;;;1.52;1.42;;;1.50;99.90;;;;;;5021220;28;20548;-83
2024/01/14 07:47:50;;;;;;;1.70;1.60;;;1.50;99.90;;;;;;5020788;28;20619;-79
2024/01/14 07:50:20;;;;;;;8.18;3.33;;;1.50;99.90;;;;;;5015481;28;20248;-81
2024/01/14 07:52:47;;;;;;;0.40;0.40;;;1.50;99.90;;;;;;5019921;28;20233;-80
2024/01/14 07:55:14;;;;;;;1.02;1.02;;;1.40;99.90;;;;;;5020191;28;20210;-78
2024/01/14 07:57:41;;;;;;;2.05;1.67;;;1.40;99.90;;;;;;5003145;28;20478;-82
2024/01/14 08:00:10;;;;;;;0.60;0.60;;;1.50;99.90;;;;;;5011168;28;20273;-80
2024/01/14 08:02:37;;;;;;;3.72;3.53;;;1.40;99.90;;;;;;5020678;28;20225;-84
2024/01/14 08:05:04;;;;;;;0.75;0.75;;;1.50;99.90;;;;;;5020408;28;20233;-82
2024/01/14 08:07:31;;;;;;;0.40;0.40;;;1.50;99.90;;;;;;5020145;28;20201;-82
2024/01/14 08:09:59;;;;;;;1.27;1.27;;;1.70;99.90;;;;;;5019569;28;20292;-78
2024/01/14 08:12:26;;;;;;;1.48;1.38;;;1.60;99.90;;;;;;5018734;28;20292;-80
2024/01/14 08:14:53;;;;;;;0.60;0.60;;;1.60;99.90;;;;;;5019065;28;20211;-78
2024/01/14 08:17:20;;;;;;;2.80;1.55;;;1.60;99.90;;;;;;5018990;28;20217;-80
2024/01/14 08:19:47;;;;;;;1.02;1.02;;;1.80;99.90;;;;;;5018506;28;20205;-79
2024/01/14 08:22:20;;;;;;;0.65;0.65;;;1.80;99.90;;;;;;5018887;28;20256;-80
2024/01/14 08:24:47;;;;;;;1.05;1.05;;;1.90;99.90;;;;;;5013466;28;20205;-78
2024/01/14 08:27:15;;;;;;;0.40;0.40;;;1.90;99.90;;;;;;5018683;28;20300;-79
2024/01/14 08:29:42;;;;;;;0.65;0.65;;;1.90;99.90;;;;;;5017458;28;20236;-78
2024/01/14 08:32:10;;;;;;;2.25;2.10;;;1.80;99.90;;;;;;5019340;28;20266;-76
2024/01/14 08:34:37;;;;;;;0.98;0.98;;;1.80;99.90;;;;;;5015685;28;20525;-78
2024/01/14 08:37:04;;;;;;;0.85;0.85;;;1.90;99.90;;;;;;5015485;28;20210;-79
2024/01/14 08:39:31;;;;;;;0.50;0.50;;;1.90;99.90;;;;;;5005701;28;20209;-78
2024/01/14 08:41:58;;;;;;;0.50;0.50;;;1.90;99.90;;;;;;5010882;28;20185;-79
2024/01/14 08:44:25;;;;;;;0.80;0.80;;;1.90;99.90;;;;;;5034995;28;21248;-85
2024/01/14 08:46:55;;;;;;;0.50;0.50;;;1.90;99.90;;;;;;5034419;28;20216;-82
2024/01/14 08:49:24;;;;;;;0.93;0.93;;;1.90;99.90;;;;;;5008861;28;20458;-83
2024/01/14 08:51:52;;;;;;;0.93;0.90;;;1.90;99.90;;;;;;5018308;28;20229;-79
2024/01/14 08:54:21;;;;;;;0.50;0.50;;;1.80;99.90;;;;;;5017899;28;20280;-78
2024/01/14 08:56:48;;;;;;;0.40;0.40;;;1.80;99.90;;;;;;5004197;28;20205;-82
2024/01/14 08:59:15;;;;;;;0.40;0.40;;;1.80;99.90;;;;;;5014453;28;20404;-82
2024/01/14 09:01:42;;;;;;;0.65;0.65;;;1.80;99.90;;;;;;5018977;28;20210;-78
2024/01/14 09:04:09;;;;;;;0.63;0.63;;;1.80;99.90;;;;;;5025810;28;20244;-80
2024/01/14 09:06:38;;;;;;;0.40;0.40;;;1.80;99.90;;;;;;5007497;28;20209;-82
2024/01/14 09:09:06;;;;;;;0.40;0.40;;;1.90;99.90;;;;;;5002035;28;20205;-81
2024/01/14 09:11:34;;;;;;;0.40;0.40;;;1.90;99.90;;;;;;5010298;28;20255;-78
2024/01/14 09:14:01;;;;;;;30.92;1.98;;;1.90;99.90;;;;;;5018144;28;20248;-80
2024/01/14 09:16:28;;;;;;;0.55;0.50;;;2.00;99.90;;;;;;5017628;28;20284;-77
2024/01/14 09:18:55;;;;;;;2.22;2.13;;;2.00;99.90;;;;;;5017382;28;20216;-80
2024/01/14 09:21:22;;;;;;;2.63;2.53;;;2.10;99.90;;;;;;5018091;28;20207;-78
2024/01/14 09:23:49;;;;;;;1.20;1.10;;;2.10;99.90;;;;;;5011770;28;20209;-81
2024/01/14 09:26:16;;;;;;;0.60;0.60;;;2.10;99.90;;;;;;5019951;28;20215;-81
2024/01/14 09:28:43;;;;;;;0.63;0.63;;;2.10;99.90;;;;;;5021455;28;20210;-82
2024/01/14 09:31:12;;;;;;;1.00;1.00;;;2.20;99.90;;;;;;5019222;28;20233;-80
2024/01/14 09:33:39;;;;;;;0.50;0.50;;;2.40;99.90;;;;;;5019175;28;20247;-81
2024/01/14 09:36:08;;;;;;;0.40;0.40;;;2.40;99.90;;;;;;5021062;28;20213;-81
2024/01/14 09:38:37;;;;;;;1.23;1.13;;;2.30;99.90;;;;;;5019955;28;20205;-79
2024/01/14 09:41:37;;;;;;;0.50;0.50;;;2.30;99.90;;;;;;5019873;28;20770;-81
2024/01/14 09:44:05;;;;;;;0.95;0.95;;;2.30;99.90;;;;;;4971561;28;20587;-79
2024/01/14 09:46:34;;;;;;;1.85;1.75;;;2.40;99.90;;;;;;5010374;28;20206;-80
2024/01/14 09:49:02;;;;;;;0.50;0.50;;;2.40;99.90;;;;;;5018202;28;20494;-81
2024/01/14 09:51:30;;;;;;;0.90;0.90;;;2.50;99.90;;;;;;5017945;28;20537;-79
2024/01/14 09:53:59;;;;;;;1.50;1.35;;;2.50;99.90;;;;;;5018367;28;20244;-82
2024/01/14 09:56:31;;;;;;;0.40;0.40;;;2.60;99.90;;;;;;5018287;28;20280;-81
2024/01/14 09:59:00;;;;;;;1.08;1.08;;;2.60;99.90;;;;;;5018318;28;20517;-78
2024/01/14 10:01:31;;;;;;;2.22;2.03;;;2.60;99.90;;;;;;5021002;28;20509;-82
2024/01/14 10:04:03;;;;;;;0.90;0.90;;;2.40;99.90;;;;;;5017589;28;20205;-81
2024/01/14 10:06:30;;;;;;;0.60;0.60;;;2.50;99.90;;;;;;5005021;28;20285;-83
2024/01/14 10:08:58;;;;;;;0.60;0.60;;;2.70;99.90;;;;;;5021587;28;20252;-80
2024/01/14 10:11:28;;;;;;;0.60;0.60;;;2.60;99.90;;;;;;5021413;28;20238;-78
2024/01/14 10:13:55;;;;;;;0.60;0.60;;;2.80;99.90;;;;;;5021708;28;20252;-80
2024/01/14 10:16:22;;;;;;;1.40;1.30;;;2.80;99.90;;;;;;5022184;28;20323;-79
2024/01/14 10:19:10;;;;;;;1.58;1.50;;;3.00;99.90;;;;;;5018209;28;20202;-81
2024/01/14 10:21:37;;;;;;;2.95;2.75;;;3.00;99.90;;;;;;5000543;28;20201;-80
2024/01/14 10:24:04;;;;;;;0.85;0.85;;;3.00;99.90;;;;;;5018634;28;20256;-81
2024/01/14 10:26:32;;;;;;;0.85;0.85;;;3.00;99.90;;;;;;5005059;28;20217;-83
2024/01/14 10:29:03;;;;;;;0.40;0.40;;;3.00;99.90;;;;;;5021487;28;20750;-81
2024/01/14 10:31:33;;;;;;;0.88;0.88;;;2.90;99.90;;;;;;5019202;28;20235;-81
2024/01/14 10:34:02;;;;;;;1.25;1.25;;;3.00;99.90;;;;;;5017358;28;20200;-80
2024/01/14 10:36:36;;;;;;;0.57;0.57;;;2.90;99.90;;;;;;5018811;28;20409;-79
2024/01/14 10:39:04;;;;;;;1.20;1.20;;;2.90;99.90;;;;;;5020480;28;20264;-80
2024/01/14 10:41:32;;;;;;;3.45;3.25;;;2.80;99.90;;;;;;5002960;28;20211;-83
2024/01/14 10:43:59;;;;;;;0.50;0.50;;;2.90;99.90;;;;;;5021184;28;20205;-78
2024/01/14 10:46:30;;;;;;;1.60;1.50;;;2.80;99.90;;;;;;5017247;28;20213;-83
2024/01/14 10:49:08;;;;;;;1.88;1.77;;;2.80;99.90;;;;;;4999808;28;20237;-81
2024/01/14 10:51:42;;;;;;;0.88;0.88;;;2.80;99.90;;;;;;5020563;28;20287;-79
2024/01/14 10:54:31;;;;;;;0.80;0.80;;;2.90;99.90;;;;;;5020705;28;20248;-79
2024/01/14 10:57:19;;;;;;;1.38;1.27;;;3.00;99.90;;;;;;5020308;28;20346;-78
2024/01/14 10:59:47;;;;;;;1.30;1.30;;;3.20;99.90;;;;;;5015264;28;20204;-79
2024/01/14 11:02:17;;;;;;;0.40;0.40;;;3.10;99.90;;;;;;5021962;28;20221;-82
2024/01/14 11:04:45;;;;;;;0.80;0.80;;;3.00;99.90;;;;;;5020169;28;20212;-83
2024/01/14 11:07:13;;;;;;;0.82;0.82;;;3.20;99.90;;;;;;5015299;28;20226;-79
2024/01/14 11:09:41;;;;;;;0.70;0.70;;;3.30;99.90;;;;;;5014818;28;20198;-83
2024/01/14 11:12:47;;;;;;;1.38;1.27;;;3.50;99.90;;;;;;5015644;28;20212;-82
2024/01/14 11:15:24;;;;;;;1.38;1.38;;;3.50;99.90;;;;;;4964481;28;20243;-79
2024/01/14 11:18:07;;;;;;;0.88;0.88;;;3.40;99.90;;;;;;5020371;28;20205;-82
2024/01/14 11:20:37;;;;;;;0.80;0.80;;;3.30;99.90;;;;;;5020367;28;20223;-83
2024/01/14 11:23:24;;;;;;;3.75;3.33;;;3.20;99.90;;;;;;5015942;28;20521;-81
2024/01/14 11:25:55;;;;;;;0.50;0.50;;;3.10;99.90;;;;;;5021796;28;20300;-80
2024/01/14 11:28:22;;;;;;;0.55;0.55;;;2.90;99.90;;;;;;5020777;28;20277;-82
2024/01/14 11:30:55;;;;;;;0.63;0.63;;;2.80;99.90;;;;;;5008313;28;20498;-82
2024/01/14 11:33:29;;;;;;;0.40;0.40;;;2.80;99.90;;;;;;5017641;28;20228;-81
2024/01/14 11:35:58;;;;;;;0.60;0.60;;;2.80;99.90;;;;;;5020158;28;20222;-81
2024/01/14 11:38:36;;;;;;;0.88;0.88;;;2.80;99.90;;;;;;5019899;28;20210;-81
2024/01/14 11:41:29;;;;;;;0.50;0.50;;;2.70;99.90;;;;;;4998253;28;20750;-84
2024/01/14 11:44:11;;;;;;;0.50;0.50;;;2.70;99.90;;;;;;5020764;28;20206;-83
2024/01/14 11:46:40;;;;;;;1.13;1.08;;;2.70;99.90;;;;;;5020617;28;20524;-85
2024/01/14 11:49:11;;;;;;;0.85;0.85;;;2.60;99.90;;;;;;5003500;28;20267;-83
2024/01/14 11:51:59;;;;;;;2.38;2.28;;;2.70;99.90;;;;;;5018684;28;20221;-82
2024/01/14 11:54:27;;;;;;;8.73;1.70;;;2.70;99.90;;;;;;5014905;28;20272;-80
2024/01/14 11:56:54;;;;;;;1.02;1.02;;;2.70;99.90;;;;;;5015446;28;20206;-80
2024/01/14 11:59:21;;;;;;;1.58;1.48;;;2.80;99.90;;;;;;5016984;28;20237;-81
2024/01/14 12:02:15;;;;;;;0.55;0.55;;;2.80;99.90;;;;;;5015959;28;20202;-83
2024/01/14 12:04:43;;;;;;;1.48;1.38;;;2.90;99.90;;;;;;5021465;28;20203;-82
2024/01/14 12:07:21;;;;;;;2.92;2.72;;;3.00;99.90;;;;;;5020737;28;20231;-80
2024/01/14 12:09:55;;;;;;;0.40;0.40;;;2.90;99.90;;;;;;5020031;28;20210;-81
2024/01/14 12:12:24;;;;;;;0.65;0.65;;;2.90;99.90;;;;;;5015960;28;20213;-85
2024/01/14 12:14:52;;;;;;;1.02;1.02;;;2.90;99.90;;;;;;5014000;28;20208;-81
2024/01/14 12:17:21;;;;;;;0.75;0.75;;;3.00;99.90;;;;;;5020055;28;20208;-85
2024/01/14 12:19:57;;;;;;;1.80;1.70;;;2.90;99.90;;;;;;5021070;28;20213;-79
2024/01/14 12:22:25;;;;;;;1.05;1.05;;;2.90;99.90;;;;;;5022454;28;20319;-81
2024/01/14 12:24:52;;;;;;;1.83;1.73;;;2.90;99.90;;;;;;5020275;28;20206;-82
2024/01/14 12:27:19;;;;;;;0.82;0.80;;;3.00;99.90;;;;;;5021327;28;20470;-80
2024/01/14 12:29:47;;;;;;;0.50;0.50;;;2.90;99.90;;;;;;5018924;28;20210;-83
2024/01/14 12:32:16;;;;;;;0.45;0.45;;;3.00;99.90;;;;;;5020389;28;20216;-83
2024/01/14 12:34:43;;;;;;;0.73;0.73;;;2.90;99.90;;;;;;5019998;28;20198;-81
2024/01/14 12:37:10;;;;;;;0.75;0.75;;;3.00;99.90;;;;;;5010130;28;20205;-85
2024/01/14 12:39:39;;;;;;;0.60;0.60;;;3.00;99.90;;;;;;5002688;28;20440;-81
2024/01/14 12:42:08;;;;;;;0.88;0.88;;;2.90;99.90;;;;;;5014548;28;20205;-84
2024/01/14 12:44:42;;;;;;;1.67;1.60;;;2.90;99.90;;;;;;5001066;28;20307;-82
2024/01/14 12:47:09;;;;;;;0.43;0.43;;;3.00;99.90;;;;;;5005228;28;20492;-78
2024/01/14 12:49:38;;;;;;;0.50;0.50;;;3.00;99.90;;;;;;5018689;28;20217;-81
2024/01/14 12:52:07;;;;;;;0.40;0.40;;;2.90;99.90;;;;;;5018897;28;20300;-79
2024/01/14 12:54:34;;;;;;;0.50;0.50;;;2.90;99.90;;;;;;5020120;28;20248;-84
2024/01/14 12:57:05;;;;;;;0.50;0.50;;;2.70;99.90;;;;;;5014927;28;20205;-84
2024/01/14 12:59:48;;;;;;;0.55;0.55;;;2.60;99.90;;;;;;5020406;28;20512;-81
2024/01/14 13:02:16;;;;;;;0.50;0.50;;;2.40;99.90;;;;;;5019369;28;20260;-83
2024/01/14 13:04:43;;;;;;;0.50;0.50;;;2.30;99.90;;;;;;5013885;28;20220;-82